sensor_id;sensor_type;location;lat;lon;timestamp;P1;durP1;ratioP1;P2;durP2;ratioP2
4634;SDS011;2330;48.158;11.816;2022-10-31T00:01:09;6.70;;;4.20;;
4634;SDS011;2330;48.158;11.816;2022-10-31T00:03:40;7.60;;;5.50;;
4634;SDS011;2330;48.158;11.816;2022-10-31T00:06:07;8.50;;;4.93;;
4634;SDS011;2330;48.158;11.816;2022-10-31T00:08:34;10.93;;;4.60;;
4634;SDS011;2330;48.158;11.816;2022-10-31T00:11:00;12.97;;;4.87;;
4634;SDS011;2330;48.158;11.816;2022-10-31T00:13:27;12.83;;;4.50;;
4634;SDS011;2330;48.158;11.816;2022-10-31T00:15:54;11.63;;;4.70;;
4634;SDS011;2330;48.158;11.816;2022-10-31T00:18:21;11.10;;;3.63;;
4634;SDS011;2330;48.158;11.816;2022-10-31T00:20:47;6.73;;;4.63;;
4634;SDS011;2330;48.158;11.816;2022-10-31T00:23:14;9.80;;;4.07;;
4634;SDS011;2330;48.158;11.816;2022-10-31T00:25:41;7.20;;;3.90;;
4634;SDS011;2330;48.158;11.816;2022-10-31T00:28:08;7.10;;;4.13;;
4634;SDS011;2330;48.158;11.816;2022-10-31T00:30:37;5.80;;;3.87;;
4634;SDS011;2330;48.158;11.816;2022-10-31T00:33:04;5.07;;;3.67;;
4634;SDS011;2330;48.158;11.816;2022-10-31T00:35:31;7.33;;;5.00;;
4634;SDS011;2330;48.158;11.816;2022-10-31T00:37:58;9.90;;;5.37;;
4634;SDS011;2330;48.158;11.816;2022-10-31T00:40:25;10.73;;;4.17;;
4634;SDS011;2330;48.158;11.816;2022-10-31T00:42:52;7.53;;;4.30;;
4634;SDS011;2330;48.158;11.816;2022-10-31T00:45:19;12.03;;;4.43;;
4634;SDS011;2330;48.158;11.816;2022-10-31T00:47:45;5.80;;;4.00;;
4634;SDS011;2330;48.158;11.816;2022-10-31T00:50:12;8.20;;;4.33;;
4634;SDS011;2330;48.158;11.816;2022-10-31T00:52:39;9.70;;;4.97;;
4634;SDS011;2330;48.158;11.816;2022-10-31T00:55:05;12.63;;;4.10;;
4634;SDS011;2330;48.158;11.816;2022-10-31T00:57:32;6.07;;;4.10;;
4634;SDS011;2330;48.158;11.816;2022-10-31T00:59:59;7.77;;;4.50;;
4634;SDS011;2330;48.158;11.816;2022-10-31T01:02:26;12.47;;;4.80;;
4634;SDS011;2330;48.158;11.816;2022-10-31T01:04:53;5.20;;;4.27;;
4634;SDS011;2330;48.158;11.816;2022-10-31T01:07:19;9.70;;;4.57;;
4634;SDS011;2330;48.158;11.816;2022-10-31T01:09:46;9.43;;;4.80;;
4634;SDS011;2330;48.158;11.816;2022-10-31T01:12:13;8.60;;;3.97;;
4634;SDS011;2330;48.158;11.816;2022-10-31T01:14:42;6.63;;;3.83;;
4634;SDS011;2330;48.158;11.816;2022-10-31T01:17:12;8.27;;;4.67;;
4634;SDS011;2330;48.158;11.816;2022-10-31T01:19:39;4.80;;;3.47;;
4634;SDS011;2330;48.158;11.816;2022-10-31T01:22:06;8.00;;;3.87;;
4634;SDS011;2330;48.158;11.816;2022-10-31T01:24:33;10.03;;;4.23;;
4634;SDS011;2330;48.158;11.816;2022-10-31T01:26:59;9.17;;;4.93;;
4634;SDS011;2330;48.158;11.816;2022-10-31T01:29:26;7.27;;;3.90;;
4634;SDS011;2330;48.158;11.816;2022-10-31T01:31:53;11.73;;;3.33;;
4634;SDS011;2330;48.158;11.816;2022-10-31T01:34:19;9.00;;;3.90;;
4634;SDS011;2330;48.158;11.816;2022-10-31T01:36:46;6.53;;;3.70;;
4634;SDS011;2330;48.158;11.816;2022-10-31T01:39:18;7.17;;;4.23;;
4634;SDS011;2330;48.158;11.816;2022-10-31T01:41:49;5.00;;;3.40;;
4634;SDS011;2330;48.158;11.816;2022-10-31T01:46:50;5.63;;;4.03;;
4634;SDS011;2330;48.158;11.816;2022-10-31T01:52:07;5.53;;;4.47;;
4634;SDS011;2330;48.158;11.816;2022-10-31T01:54:40;9.40;;;4.00;;
4634;SDS011;2330;48.158;11.816;2022-10-31T01:57:10;12.57;;;4.50;;
4634;SDS011;2330;48.158;11.816;2022-10-31T01:59:40;10.93;;;4.07;;
4634;SDS011;2330;48.158;11.816;2022-10-31T02:02:11;10.60;;;4.10;;
4634;SDS011;2330;48.158;11.816;2022-10-31T02:04:39;6.60;;;4.33;;
4634;SDS011;2330;48.158;11.816;2022-10-31T02:07:07;5.70;;;3.60;;
4634;SDS011;2330;48.158;11.816;2022-10-31T02:09:44;6.53;;;3.87;;
4634;SDS011;2330;48.158;11.816;2022-10-31T02:12:13;4.17;;;3.00;;
4634;SDS011;2330;48.158;11.816;2022-10-31T02:14:41;8.03;;;3.83;;
4634;SDS011;2330;48.158;11.816;2022-10-31T02:17:08;10.63;;;4.30;;
4634;SDS011;2330;48.158;11.816;2022-10-31T02:25:25;10.03;;;4.00;;
4634;SDS011;2330;48.158;11.816;2022-10-31T02:36:43;5.70;;;3.87;;
4634;SDS011;2330;48.158;11.816;2022-10-31T02:44:50;8.20;;;4.00;;
4634;SDS011;2330;48.158;11.816;2022-10-31T02:47:24;8.30;;;3.90;;
4634;SDS011;2330;48.158;11.816;2022-10-31T02:49:59;10.03;;;4.23;;
4634;SDS011;2330;48.158;11.816;2022-10-31T02:52:50;8.53;;;4.30;;
4634;SDS011;2330;48.158;11.816;2022-10-31T02:57:51;7.30;;;4.10;;
4634;SDS011;2330;48.158;11.816;2022-10-31T03:00:23;5.67;;;3.30;;
4634;SDS011;2330;48.158;11.816;2022-10-31T03:05:40;6.93;;;3.40;;
4634;SDS011;2330;48.158;11.816;2022-10-31T03:11:13;10.90;;;3.90;;
4634;SDS011;2330;48.158;11.816;2022-10-31T03:19:05;13.53;;;4.10;;
4634;SDS011;2330;48.158;11.816;2022-10-31T03:21:42;8.73;;;3.70;;
4634;SDS011;2330;48.158;11.816;2022-10-31T03:24:11;6.90;;;4.00;;
4634;SDS011;2330;48.158;11.816;2022-10-31T03:26:44;6.57;;;3.60;;
4634;SDS011;2330;48.158;11.816;2022-10-31T03:29:16;7.87;;;3.80;;
4634;SDS011;2330;48.158;11.816;2022-10-31T03:31:49;18.03;;;4.10;;
4634;SDS011;2330;48.158;11.816;2022-10-31T03:34:21;9.70;;;3.83;;
4634;SDS011;2330;48.158;11.816;2022-10-31T03:36:51;7.80;;;3.33;;
4634;SDS011;2330;48.158;11.816;2022-10-31T03:39:22;5.60;;;3.23;;
4634;SDS011;2330;48.158;11.816;2022-10-31T03:41:53;9.00;;;4.03;;
4634;SDS011;2330;48.158;11.816;2022-10-31T03:44:26;6.37;;;3.13;;
4634;SDS011;2330;48.158;11.816;2022-10-31T03:46:55;7.87;;;3.60;;
4634;SDS011;2330;48.158;11.816;2022-10-31T03:49:23;6.93;;;4.03;;
4634;SDS011;2330;48.158;11.816;2022-10-31T03:57:15;6.90;;;3.23;;
4634;SDS011;2330;48.158;11.816;2022-10-31T04:00:06;7.03;;;3.63;;
4634;SDS011;2330;48.158;11.816;2022-10-31T04:02:39;14.10;;;3.20;;
4634;SDS011;2330;48.158;11.816;2022-10-31T04:05:09;5.67;;;3.40;;
4634;SDS011;2330;48.158;11.816;2022-10-31T04:07:39;8.50;;;2.43;;
4634;SDS011;2330;48.158;11.816;2022-10-31T04:10:10;7.50;;;3.03;;
4634;SDS011;2330;48.158;11.816;2022-10-31T04:12:39;6.77;;;3.50;;
4634;SDS011;2330;48.158;11.816;2022-10-31T04:15:08;4.57;;;3.40;;
4634;SDS011;2330;48.158;11.816;2022-10-31T04:17:37;3.47;;;3.17;;
4634;SDS011;2330;48.158;11.816;2022-10-31T04:20:06;5.73;;;2.37;;
4634;SDS011;2330;48.158;11.816;2022-10-31T04:22:33;6.30;;;3.40;;
4634;SDS011;2330;48.158;11.816;2022-10-31T04:25:00;6.00;;;3.20;;
4634;SDS011;2330;48.158;11.816;2022-10-31T04:27:26;7.90;;;3.70;;
4634;SDS011;2330;48.158;11.816;2022-10-31T04:29:53;9.90;;;4.10;;
4634;SDS011;2330;48.158;11.816;2022-10-31T04:32:20;8.17;;;3.73;;
4634;SDS011;2330;48.158;11.816;2022-10-31T04:34:46;7.03;;;3.53;;
4634;SDS011;2330;48.158;11.816;2022-10-31T04:37:13;8.23;;;4.20;;
4634;SDS011;2330;48.158;11.816;2022-10-31T04:39:40;6.13;;;3.10;;
4634;SDS011;2330;48.158;11.816;2022-10-31T04:42:06;5.43;;;3.50;;
4634;SDS011;2330;48.158;11.816;2022-10-31T04:44:33;7.43;;;3.23;;
4634;SDS011;2330;48.158;11.816;2022-10-31T04:47:00;6.57;;;3.17;;
4634;SDS011;2330;48.158;11.816;2022-10-31T04:49:26;5.07;;;3.10;;
4634;SDS011;2330;48.158;11.816;2022-10-31T04:51:53;4.83;;;3.03;;
4634;SDS011;2330;48.158;11.816;2022-10-31T04:54:20;6.10;;;3.30;;
4634;SDS011;2330;48.158;11.816;2022-10-31T04:56:46;6.27;;;3.40;;
4634;SDS011;2330;48.158;11.816;2022-10-31T04:59:13;6.23;;;3.40;;
4634;SDS011;2330;48.158;11.816;2022-10-31T05:01:40;5.43;;;3.30;;
4634;SDS011;2330;48.158;11.816;2022-10-31T05:04:06;7.23;;;4.07;;
4634;SDS011;2330;48.158;11.816;2022-10-31T05:06:33;8.30;;;3.57;;
4634;SDS011;2330;48.158;11.816;2022-10-31T05:09:00;7.87;;;3.00;;
4634;SDS011;2330;48.158;11.816;2022-10-31T05:11:27;7.30;;;3.87;;
4634;SDS011;2330;48.158;11.816;2022-10-31T05:13:53;7.23;;;3.30;;
4634;SDS011;2330;48.158;11.816;2022-10-31T05:16:20;6.33;;;3.60;;
4634;SDS011;2330;48.158;11.816;2022-10-31T05:18:47;9.10;;;3.47;;
4634;SDS011;2330;48.158;11.816;2022-10-31T05:21:13;3.87;;;3.30;;
4634;SDS011;2330;48.158;11.816;2022-10-31T05:23:40;6.73;;;3.00;;
4634;SDS011;2330;48.158;11.816;2022-10-31T05:26:13;6.20;;;3.70;;
4634;SDS011;2330;48.158;11.816;2022-10-31T05:28:40;8.13;;;2.87;;
4634;SDS011;2330;48.158;11.816;2022-10-31T05:31:06;7.67;;;3.30;;
4634;SDS011;2330;48.158;11.816;2022-10-31T05:33:33;14.20;;;3.43;;
4634;SDS011;2330;48.158;11.816;2022-10-31T05:36:00;7.53;;;3.30;;
4634;SDS011;2330;48.158;11.816;2022-10-31T05:38:26;7.97;;;2.57;;
4634;SDS011;2330;48.158;11.816;2022-10-31T05:40:54;7.63;;;3.47;;
4634;SDS011;2330;48.158;11.816;2022-10-31T05:43:23;4.10;;;2.90;;
4634;SDS011;2330;48.158;11.816;2022-10-31T05:45:54;8.03;;;3.63;;
4634;SDS011;2330;48.158;11.816;2022-10-31T05:48:21;8.10;;;3.67;;
4634;SDS011;2330;48.158;11.816;2022-10-31T05:50:49;11.80;;;3.53;;
4634;SDS011;2330;48.158;11.816;2022-10-31T05:53:15;15.17;;;5.03;;
4634;SDS011;2330;48.158;11.816;2022-10-31T05:55:42;9.77;;;3.23;;
4634;SDS011;2330;48.158;11.816;2022-10-31T05:58:10;7.33;;;4.10;;
4634;SDS011;2330;48.158;11.816;2022-10-31T06:00:36;11.70;;;4.23;;
4634;SDS011;2330;48.158;11.816;2022-10-31T06:03:04;3.80;;;3.03;;
4634;SDS011;2330;48.158;11.816;2022-10-31T06:05:37;5.07;;;3.63;;
4634;SDS011;2330;48.158;11.816;2022-10-31T06:08:04;6.43;;;3.10;;
4634;SDS011;2330;48.158;11.816;2022-10-31T06:10:31;10.33;;;3.07;;
4634;SDS011;2330;48.158;11.816;2022-10-31T06:12:58;6.27;;;3.03;;
4634;SDS011;2330;48.158;11.816;2022-10-31T06:15:24;5.60;;;3.37;;
4634;SDS011;2330;48.158;11.816;2022-10-31T06:17:58;5.77;;;3.13;;
4634;SDS011;2330;48.158;11.816;2022-10-31T06:20:27;5.37;;;3.60;;
4634;SDS011;2330;48.158;11.816;2022-10-31T06:22:53;9.60;;;3.50;;
4634;SDS011;2330;48.158;11.816;2022-10-31T06:25:20;5.03;;;2.63;;
4634;SDS011;2330;48.158;11.816;2022-10-31T06:27:47;7.57;;;2.67;;
4634;SDS011;2330;48.158;11.816;2022-10-31T06:30:14;4.60;;;2.87;;
4634;SDS011;2330;48.158;11.816;2022-10-31T06:32:40;4.13;;;2.40;;
4634;SDS011;2330;48.158;11.816;2022-10-31T06:35:07;3.43;;;2.50;;
4634;SDS011;2330;48.158;11.816;2022-10-31T06:37:34;8.77;;;3.43;;
4634;SDS011;2330;48.158;11.816;2022-10-31T06:40:01;9.10;;;3.73;;
4634;SDS011;2330;48.158;11.816;2022-10-31T06:42:27;3.70;;;2.90;;
4634;SDS011;2330;48.158;11.816;2022-10-31T06:44:54;3.90;;;3.30;;
4634;SDS011;2330;48.158;11.816;2022-10-31T06:47:21;5.13;;;3.40;;
4634;SDS011;2330;48.158;11.816;2022-10-31T06:49:48;6.10;;;3.20;;
4634;SDS011;2330;48.158;11.816;2022-10-31T06:52:14;10.10;;;3.67;;
4634;SDS011;2330;48.158;11.816;2022-10-31T06:54:41;6.33;;;3.57;;
4634;SDS011;2330;48.158;11.816;2022-10-31T06:57:08;4.50;;;3.03;;
4634;SDS011;2330;48.158;11.816;2022-10-31T06:59:35;16.03;;;3.50;;
4634;SDS011;2330;48.158;11.816;2022-10-31T07:02:01;8.30;;;3.33;;
4634;SDS011;2330;48.158;11.816;2022-10-31T07:04:28;7.20;;;3.60;;
4634;SDS011;2330;48.158;11.816;2022-10-31T07:06:55;12.40;;;4.70;;
4634;SDS011;2330;48.158;11.816;2022-10-31T07:09:22;10.90;;;4.40;;
4634;SDS011;2330;48.158;11.816;2022-10-31T07:11:50;8.80;;;3.70;;
4634;SDS011;2330;48.158;11.816;2022-10-31T07:14:18;7.83;;;3.73;;
4634;SDS011;2330;48.158;11.816;2022-10-31T07:16:48;7.50;;;4.30;;
4634;SDS011;2330;48.158;11.816;2022-10-31T07:19:16;8.50;;;4.33;;
4634;SDS011;2330;48.158;11.816;2022-10-31T07:21:43;6.73;;;4.00;;
4634;SDS011;2330;48.158;11.816;2022-10-31T07:24:10;8.50;;;3.90;;
4634;SDS011;2330;48.158;11.816;2022-10-31T07:26:37;14.33;;;4.80;;
4634;SDS011;2330;48.158;11.816;2022-10-31T07:29:03;7.47;;;3.53;;
4634;SDS011;2330;48.158;11.816;2022-10-31T07:31:30;5.40;;;4.00;;
4634;SDS011;2330;48.158;11.816;2022-10-31T07:33:57;5.63;;;3.30;;
4634;SDS011;2330;48.158;11.816;2022-10-31T07:36:24;9.07;;;3.57;;
4634;SDS011;2330;48.158;11.816;2022-10-31T07:38:50;12.63;;;4.00;;
4634;SDS011;2330;48.158;11.816;2022-10-31T07:41:17;10.90;;;4.07;;
4634;SDS011;2330;48.158;11.816;2022-10-31T07:43:44;9.77;;;3.50;;
4634;SDS011;2330;48.158;11.816;2022-10-31T07:46:11;8.70;;;3.53;;
4634;SDS011;2330;48.158;11.816;2022-10-31T07:48:38;11.30;;;4.43;;
4634;SDS011;2330;48.158;11.816;2022-10-31T07:51:05;8.17;;;3.90;;
4634;SDS011;2330;48.158;11.816;2022-10-31T07:53:33;9.50;;;4.43;;
4634;SDS011;2330;48.158;11.816;2022-10-31T07:55:59;15.37;;;4.53;;
4634;SDS011;2330;48.158;11.816;2022-10-31T07:58:26;11.10;;;4.73;;
4634;SDS011;2330;48.158;11.816;2022-10-31T08:00:53;22.17;;;4.97;;
4634;SDS011;2330;48.158;11.816;2022-10-31T08:03:20;10.73;;;4.43;;
4634;SDS011;2330;48.158;11.816;2022-10-31T08:05:47;9.00;;;4.23;;
4634;SDS011;2330;48.158;11.816;2022-10-31T08:08:13;12.83;;;3.57;;
4634;SDS011;2330;48.158;11.816;2022-10-31T08:10:41;12.13;;;3.30;;
4634;SDS011;2330;48.158;11.816;2022-10-31T08:13:09;10.23;;;3.43;;
4634;SDS011;2330;48.158;11.816;2022-10-31T08:15:37;11.30;;;3.53;;
4634;SDS011;2330;48.158;11.816;2022-10-31T08:18:06;10.87;;;4.50;;
4634;SDS011;2330;48.158;11.816;2022-10-31T08:20:37;7.73;;;4.37;;
4634;SDS011;2330;48.158;11.816;2022-10-31T08:23:04;14.23;;;4.00;;
4634;SDS011;2330;48.158;11.816;2022-10-31T08:25:32;6.27;;;3.63;;
4634;SDS011;2330;48.158;11.816;2022-10-31T08:28:04;12.20;;;4.30;;
4634;SDS011;2330;48.158;11.816;2022-10-31T08:30:33;13.70;;;4.77;;
4634;SDS011;2330;48.158;11.816;2022-10-31T08:33:02;12.70;;;4.87;;
4634;SDS011;2330;48.158;11.816;2022-10-31T08:35:30;10.10;;;4.30;;
4634;SDS011;2330;48.158;11.816;2022-10-31T08:37:58;6.17;;;3.87;;
4634;SDS011;2330;48.158;11.816;2022-10-31T08:40:26;9.37;;;4.40;;
4634;SDS011;2330;48.158;11.816;2022-10-31T08:42:58;14.63;;;4.57;;
4634;SDS011;2330;48.158;11.816;2022-10-31T08:45:26;11.23;;;4.80;;
4634;SDS011;2330;48.158;11.816;2022-10-31T08:47:56;19.07;;;6.53;;
4634;SDS011;2330;48.158;11.816;2022-10-31T08:50:25;9.03;;;5.50;;
4634;SDS011;2330;48.158;11.816;2022-10-31T08:52:52;8.50;;;5.43;;
4634;SDS011;2330;48.158;11.816;2022-10-31T08:55:32;9.77;;;5.10;;
4634;SDS011;2330;48.158;11.816;2022-10-31T08:58:00;10.80;;;5.20;;
4634;SDS011;2330;48.158;11.816;2022-10-31T09:00:28;9.13;;;4.93;;
4634;SDS011;2330;48.158;11.816;2022-10-31T09:02:55;6.73;;;4.03;;
4634;SDS011;2330;48.158;11.816;2022-10-31T09:05:27;8.87;;;4.03;;
4634;SDS011;2330;48.158;11.816;2022-10-31T09:07:55;5.57;;;3.80;;
4634;SDS011;2330;48.158;11.816;2022-10-31T09:10:24;5.87;;;3.73;;
4634;SDS011;2330;48.158;11.816;2022-10-31T09:12:55;7.60;;;4.13;;
4634;SDS011;2330;48.158;11.816;2022-10-31T09:15:23;10.83;;;4.50;;
4634;SDS011;2330;48.158;11.816;2022-10-31T09:17:51;8.20;;;3.97;;
4634;SDS011;2330;48.158;11.816;2022-10-31T09:20:18;9.97;;;3.67;;
4634;SDS011;2330;48.158;11.816;2022-10-31T09:22:45;15.50;;;3.57;;
4634;SDS011;2330;48.158;11.816;2022-10-31T09:25:12;5.63;;;3.30;;
4634;SDS011;2330;48.158;11.816;2022-10-31T09:27:39;6.53;;;3.37;;
4634;SDS011;2330;48.158;11.816;2022-10-31T09:30:06;10.93;;;3.23;;
4634;SDS011;2330;48.158;11.816;2022-10-31T09:32:33;4.07;;;2.77;;
4634;SDS011;2330;48.158;11.816;2022-10-31T09:35:00;6.70;;;3.53;;
4634;SDS011;2330;48.158;11.816;2022-10-31T09:37:27;4.97;;;2.63;;
4634;SDS011;2330;48.158;11.816;2022-10-31T09:39:53;5.93;;;3.10;;
4634;SDS011;2330;48.158;11.816;2022-10-31T09:42:34;6.80;;;3.00;;
4634;SDS011;2330;48.158;11.816;2022-10-31T09:50:47;6.33;;;3.00;;
4634;SDS011;2330;48.158;11.816;2022-10-31T09:56:07;3.87;;;2.37;;
4634;SDS011;2330;48.158;11.816;2022-10-31T09:58:42;9.23;;;3.07;;
4634;SDS011;2330;48.158;11.816;2022-10-31T10:07:15;10.23;;;3.23;;
4634;SDS011;2330;48.158;11.816;2022-10-31T10:10:15;8.13;;;3.30;;
4634;SDS011;2330;48.158;11.816;2022-10-31T10:13:00;8.50;;;3.13;;
4634;SDS011;2330;48.158;11.816;2022-10-31T10:15:37;4.43;;;3.00;;
4634;SDS011;2330;48.158;11.816;2022-10-31T10:18:56;4.63;;;2.67;;
4634;SDS011;2330;48.158;11.816;2022-10-31T10:23:47;15.23;;;3.43;;
4634;SDS011;2330;48.158;11.816;2022-10-31T10:26:25;5.73;;;2.53;;
4634;SDS011;2330;48.158;11.816;2022-10-31T10:32:10;7.10;;;3.73;;
4634;SDS011;2330;48.158;11.816;2022-10-31T10:34:45;12.07;;;3.20;;
4634;SDS011;2330;48.158;11.816;2022-10-31T10:43:01;12.93;;;3.60;;
4634;SDS011;2330;48.158;11.816;2022-10-31T10:45:46;7.37;;;3.10;;
4634;SDS011;2330;48.158;11.816;2022-10-31T10:48:48;7.67;;;3.03;;
4634;SDS011;2330;48.158;11.816;2022-10-31T10:51:30;10.53;;;3.10;;
4634;SDS011;2330;48.158;11.816;2022-10-31T11:00:15;7.93;;;3.77;;
4634;SDS011;2330;48.158;11.816;2022-10-31T11:02:47;3.07;;;2.17;;
4634;SDS011;2330;48.158;11.816;2022-10-31T11:05:18;6.13;;;3.47;;
4634;SDS011;2330;48.158;11.816;2022-10-31T11:07:46;6.13;;;2.83;;
4634;SDS011;2330;48.158;11.816;2022-10-31T11:10:13;10.27;;;3.73;;
4634;SDS011;2330;48.158;11.816;2022-10-31T11:12:42;10.73;;;2.60;;
4634;SDS011;2330;48.158;11.816;2022-10-31T11:15:18;8.10;;;3.50;;
4634;SDS011;2330;48.158;11.816;2022-10-31T11:17:49;13.60;;;2.90;;
4634;SDS011;2330;48.158;11.816;2022-10-31T11:22:45;16.83;;;3.33;;
4634;SDS011;2330;48.158;11.816;2022-10-31T11:30:30;18.47;;;3.03;;
4634;SDS011;2330;48.158;11.816;2022-10-31T11:33:17;11.60;;;3.40;;
4634;SDS011;2330;48.158;11.816;2022-10-31T11:35:56;9.73;;;2.93;;
4634;SDS011;2330;48.158;11.816;2022-10-31T11:38:26;5.70;;;2.90;;
4634;SDS011;2330;48.158;11.816;2022-10-31T11:41:17;15.33;;;3.40;;
4634;SDS011;2330;48.158;11.816;2022-10-31T11:43:54;7.47;;;3.20;;
4634;SDS011;2330;48.158;11.816;2022-10-31T11:46:44;9.27;;;4.00;;
4634;SDS011;2330;48.158;11.816;2022-10-31T11:49:32;4.73;;;2.67;;
4634;SDS011;2330;48.158;11.816;2022-10-31T11:52:07;10.83;;;3.67;;
4634;SDS011;2330;48.158;11.816;2022-10-31T11:54:58;8.70;;;2.97;;
4634;SDS011;2330;48.158;11.816;2022-10-31T12:00:32;7.13;;;3.70;;
4634;SDS011;2330;48.158;11.816;2022-10-31T12:06:00;6.77;;;3.37;;
4634;SDS011;2330;48.158;11.816;2022-10-31T12:08:53;9.77;;;3.10;;
4634;SDS011;2330;48.158;11.816;2022-10-31T12:17:01;10.77;;;3.20;;
4634;SDS011;2330;48.158;11.816;2022-10-31T12:19:45;4.53;;;3.10;;
4634;SDS011;2330;48.158;11.816;2022-10-31T12:30:48;8.00;;;4.30;;
4634;SDS011;2330;48.158;11.816;2022-10-31T12:41:58;9.17;;;4.00;;
4634;SDS011;2330;48.158;11.816;2022-10-31T12:44:48;7.33;;;3.30;;
4634;SDS011;2330;48.158;11.816;2022-10-31T12:55:30;10.80;;;4.10;;
4634;SDS011;2330;48.158;11.816;2022-10-31T12:58:14;9.63;;;2.90;;
4634;SDS011;2330;48.158;11.816;2022-10-31T13:01:02;9.63;;;3.57;;
4634;SDS011;2330;48.158;11.816;2022-10-31T13:03:52;11.80;;;3.50;;
4634;SDS011;2330;48.158;11.816;2022-10-31T13:06:28;15.07;;;3.93;;
4634;SDS011;2330;48.158;11.816;2022-10-31T13:09:11;6.73;;;3.33;;
4634;SDS011;2330;48.158;11.816;2022-10-31T13:11:47;3.97;;;2.53;;
4634;SDS011;2330;48.158;11.816;2022-10-31T13:14:42;9.13;;;4.37;;
4634;SDS011;2330;48.158;11.816;2022-10-31T13:17:15;15.43;;;4.90;;
4634;SDS011;2330;48.158;11.816;2022-10-31T13:19:48;7.37;;;3.23;;
4634;SDS011;2330;48.158;11.816;2022-10-31T13:22:18;9.80;;;4.20;;
4634;SDS011;2330;48.158;11.816;2022-10-31T13:28:00;5.90;;;3.97;;
4634;SDS011;2330;48.158;11.816;2022-10-31T13:30:32;11.37;;;4.87;;
4634;SDS011;2330;48.158;11.816;2022-10-31T13:35:45;8.07;;;3.77;;
4634;SDS011;2330;48.158;11.816;2022-10-31T13:38:34;12.27;;;5.80;;
4634;SDS011;2330;48.158;11.816;2022-10-31T13:46:46;15.53;;;5.73;;
4634;SDS011;2330;48.158;11.816;2022-10-31T13:54:38;17.43;;;6.07;;
4634;SDS011;2330;48.158;11.816;2022-10-31T13:57:07;11.80;;;6.40;;
4634;SDS011;2330;48.158;11.816;2022-10-31T13:59:49;14.43;;;6.13;;
4634;SDS011;2330;48.158;11.816;2022-10-31T14:02:26;13.60;;;6.00;;
4634;SDS011;2330;48.158;11.816;2022-10-31T14:05:02;6.13;;;4.93;;
4634;SDS011;2330;48.158;11.816;2022-10-31T14:07:44;7.67;;;5.23;;
4634;SDS011;2330;48.158;11.816;2022-10-31T14:10:25;8.40;;;6.70;;
4634;SDS011;2330;48.158;11.816;2022-10-31T14:15:33;11.73;;;7.13;;
4634;SDS011;2330;48.158;11.816;2022-10-31T14:18:04;8.73;;;5.77;;
4634;SDS011;2330;48.158;11.816;2022-10-31T14:23:11;10.20;;;6.90;;
4634;SDS011;2330;48.158;11.816;2022-10-31T14:26:06;11.83;;;7.27;;
4634;SDS011;2330;48.158;11.816;2022-10-31T14:28:53;10.90;;;7.17;;
4634;SDS011;2330;48.158;11.816;2022-10-31T14:31:38;14.23;;;8.40;;
4634;SDS011;2330;48.158;11.816;2022-10-31T14:34:26;13.20;;;6.87;;
4634;SDS011;2330;48.158;11.816;2022-10-31T14:39:42;14.20;;;7.10;;
4634;SDS011;2330;48.158;11.816;2022-10-31T14:42:21;18.33;;;7.30;;
4634;SDS011;2330;48.158;11.816;2022-10-31T14:45:20;10.83;;;7.13;;
4634;SDS011;2330;48.158;11.816;2022-10-31T14:53:04;12.90;;;6.57;;
4634;SDS011;2330;48.158;11.816;2022-10-31T14:55:45;9.37;;;5.83;;
4634;SDS011;2330;48.158;11.816;2022-10-31T14:58:15;8.40;;;5.83;;
4634;SDS011;2330;48.158;11.816;2022-10-31T15:01:04;10.17;;;5.80;;
4634;SDS011;2330;48.158;11.816;2022-10-31T15:03:39;9.20;;;6.83;;
4634;SDS011;2330;48.158;11.816;2022-10-31T15:06:35;8.33;;;6.60;;
4634;SDS011;2330;48.158;11.816;2022-10-31T15:11:53;10.53;;;6.10;;
4634;SDS011;2330;48.158;11.816;2022-10-31T15:16:57;7.07;;;4.83;;
4634;SDS011;2330;48.158;11.816;2022-10-31T15:19:29;11.17;;;7.10;;
4634;SDS011;2330;48.158;11.816;2022-10-31T15:21:57;9.67;;;5.97;;
4634;SDS011;2330;48.158;11.816;2022-10-31T15:24:26;8.20;;;5.00;;
4634;SDS011;2330;48.158;11.816;2022-10-31T15:26:58;17.23;;;7.30;;
4634;SDS011;2330;48.158;11.816;2022-10-31T15:29:30;7.43;;;4.90;;
4634;SDS011;2330;48.158;11.816;2022-10-31T15:31:58;10.00;;;6.10;;
4634;SDS011;2330;48.158;11.816;2022-10-31T15:37:02;13.07;;;8.47;;
4634;SDS011;2330;48.158;11.816;2022-10-31T15:39:29;18.83;;;7.27;;
4634;SDS011;2330;48.158;11.816;2022-10-31T15:41:56;17.10;;;8.60;;
4634;SDS011;2330;48.158;11.816;2022-10-31T15:44:28;10.27;;;5.60;;
4634;SDS011;2330;48.158;11.816;2022-10-31T15:46:58;8.40;;;5.83;;
4634;SDS011;2330;48.158;11.816;2022-10-31T15:52:13;10.10;;;5.97;;
4634;SDS011;2330;48.158;11.816;2022-10-31T15:54:45;9.30;;;5.60;;
4634;SDS011;2330;48.158;11.816;2022-10-31T15:57:14;9.80;;;6.40;;
4634;SDS011;2330;48.158;11.816;2022-10-31T15:59:50;11.50;;;5.40;;
4634;SDS011;2330;48.158;11.816;2022-10-31T16:02:19;17.13;;;6.10;;
4634;SDS011;2330;48.158;11.816;2022-10-31T16:04:49;10.50;;;5.80;;
4634;SDS011;2330;48.158;11.816;2022-10-31T16:07:19;10.17;;;6.70;;
4634;SDS011;2330;48.158;11.816;2022-10-31T16:12:31;9.40;;;5.77;;
4634;SDS011;2330;48.158;11.816;2022-10-31T16:15:01;14.53;;;6.07;;
4634;SDS011;2330;48.158;11.816;2022-10-31T16:17:30;15.43;;;7.40;;
4634;SDS011;2330;48.158;11.816;2022-10-31T16:19:58;9.83;;;6.00;;
4634;SDS011;2330;48.158;11.816;2022-10-31T16:22:31;12.53;;;6.10;;
4634;SDS011;2330;48.158;11.816;2022-10-31T16:25:13;14.87;;;7.00;;
4634;SDS011;2330;48.158;11.816;2022-10-31T16:27:50;8.27;;;5.50;;
4634;SDS011;2330;48.158;11.816;2022-10-31T16:30:27;13.13;;;7.07;;
4634;SDS011;2330;48.158;11.816;2022-10-31T16:39:02;17.00;;;5.70;;
4634;SDS011;2330;48.158;11.816;2022-10-31T16:41:29;15.63;;;6.50;;
4634;SDS011;2330;48.158;11.816;2022-10-31T16:44:04;9.90;;;6.17;;
4634;SDS011;2330;48.158;11.816;2022-10-31T16:46:40;7.70;;;5.43;;
4634;SDS011;2330;48.158;11.816;2022-10-31T16:49:08;9.80;;;6.20;;
4634;SDS011;2330;48.158;11.816;2022-10-31T16:51:35;11.27;;;6.57;;
4634;SDS011;2330;48.158;11.816;2022-10-31T16:54:03;15.27;;;6.30;;
4634;SDS011;2330;48.158;11.816;2022-10-31T16:56:30;13.10;;;6.80;;
4634;SDS011;2330;48.158;11.816;2022-10-31T16:59:00;9.53;;;6.40;;
4634;SDS011;2330;48.158;11.816;2022-10-31T17:01:30;14.07;;;7.50;;
4634;SDS011;2330;48.158;11.816;2022-10-31T17:03:57;10.27;;;7.10;;
4634;SDS011;2330;48.158;11.816;2022-10-31T17:06:24;13.80;;;7.90;;
4634;SDS011;2330;48.158;11.816;2022-10-31T17:08:53;11.40;;;6.40;;
4634;SDS011;2330;48.158;11.816;2022-10-31T17:11:21;15.00;;;8.37;;
4634;SDS011;2330;48.158;11.816;2022-10-31T17:13:50;18.50;;;11.63;;
4634;SDS011;2330;48.158;11.816;2022-10-31T17:16:18;17.10;;;10.50;;
4634;SDS011;2330;48.158;11.816;2022-10-31T17:18:45;13.87;;;8.80;;
4634;SDS011;2330;48.158;11.816;2022-10-31T17:21:20;22.97;;;13.20;;
4634;SDS011;2330;48.158;11.816;2022-10-31T17:23:49;26.50;;;14.60;;
4634;SDS011;2330;48.158;11.816;2022-10-31T17:26:16;23.13;;;13.83;;
4634;SDS011;2330;48.158;11.816;2022-10-31T17:28:43;28.07;;;16.53;;
4634;SDS011;2330;48.158;11.816;2022-10-31T17:31:24;32.43;;;18.87;;
4634;SDS011;2330;48.158;11.816;2022-10-31T17:33:55;26.53;;;16.27;;
4634;SDS011;2330;48.158;11.816;2022-10-31T17:36:28;25.60;;;17.87;;
4634;SDS011;2330;48.158;11.816;2022-10-31T17:38:55;23.17;;;16.60;;
4634;SDS011;2330;48.158;11.816;2022-10-31T17:41:22;34.83;;;17.33;;
4634;SDS011;2330;48.158;11.816;2022-10-31T17:43:53;29.97;;;19.00;;
4634;SDS011;2330;48.158;11.816;2022-10-31T17:46:24;22.23;;;14.77;;
4634;SDS011;2330;48.158;11.816;2022-10-31T17:48:51;17.37;;;12.57;;
4634;SDS011;2330;48.158;11.816;2022-10-31T17:51:18;14.60;;;9.93;;
4634;SDS011;2330;48.158;11.816;2022-10-31T17:53:44;21.17;;;8.97;;
4634;SDS011;2330;48.158;11.816;2022-10-31T17:56:11;25.03;;;11.63;;
4634;SDS011;2330;48.158;11.816;2022-10-31T17:58:38;20.57;;;14.23;;
4634;SDS011;2330;48.158;11.816;2022-10-31T18:01:08;25.20;;;12.67;;
4634;SDS011;2330;48.158;11.816;2022-10-31T18:03:37;21.77;;;12.20;;
4634;SDS011;2330;48.158;11.816;2022-10-31T18:06:04;23.17;;;14.23;;
4634;SDS011;2330;48.158;11.816;2022-10-31T18:08:32;22.63;;;14.13;;